Tiempo atmosférico en la estación meteorológica de Nuñomoral, Cáceres (475 m.)



Fecha
DESCASC
Temp. máxima en grados centígrados (hora)
DESCASC
Temp. mínima en grados centígrados (hora)
DESCASC
Temp. media en grados centígrados
DESCASC
Racha de viento máxima en m/sg (hora)
DESCASC
Velocidad máxima media en intervalos de 10 minutos(hora)
DESCASC
Precipitaciones diarias en mm
DESCASC
Precipitaciones de 00:00 a 06:00 en mm
DESCASC
Precipitaciones de 06:00 a 12:00 en mm
DESCASC
Precipitaciones de 12:00 a 18:00 en mm
DESCASC
Precipitaciones de 18:00 a 24:00 en mm
DESCASC
17-03-2019 17.4 (14:50) 3.1 (04:50) 10.2 11.67 (05:10) 6.39 (11:40) 0 0 0 0 0
16-03-2019 24.1 (16:20) 0.9 (07:30) 12.5 6.67 (15:30) 3.33 (14:40) 0 0 0 0 0
15-03-2019 23.3 (14:50) -1.6 (07:00) 10.8 7.78 (15:10) 4.72 (15:10) 0 0 0 0 0
14-03-2019 22.2 (17:20) -0.6 (-00:0) 10.8 4.17 (15:20) 2.22 (15:20) 0 0 0 0 0
13-03-2019 16 (16:00) 3.5 (00:00) 9.8 10 (07:10) 6.11 (06:50) 0 0 0 0 0
12-03-2019 22 (15:30) 1.6 (00:00) 11.8 11.11 (16:30) 4.72 (16:30) 0 0 0 0 0
11-03-2019 22 (16:40) 6.4 (00:00) 14.2 10.28 (03:20) 5.28 (03:30) 0 0 0 0 0
10-03-2019 22.4 (15:50) 2.6 (00:00) 12.5 9.17 (13:40) 5.56 (13:40) 0 0 0 0 0
09-03-2019 19.8 (18:20) 1.4 (00:00) 10.6 5.56 (15:10) 3.61 (16:40) 0 0 0 0 0
08-03-2019 16.7 (16:10) 2.4 (00:00) 9.6 6.67 (17:20) 3.89 (17:20) 0.2 0.2 0 0 0
07-03-2019 10.8 (14:40) 0.2 (00:00) 5.5 8.06 (15:30) 3.89 (16:40) 4.2 0 0 0.6 3.6
06-03-2019 13.4 (00:00) 7.3 (00:00) 10.3 16.39 (12:10) 5.83 (12:10) 35.6 5 28 2.6 0
05-03-2019 13.4 (23:59) 3.7 (00:00) 8.5 13.33 (23:40) 4.72 (23:59) 24.4 0 0 0.6 23.8
04-03-2019 16.2 (14:50) 6 (00:00) 11.1 10 (15:00) 4.72 (15:00) 0 0 0 0 0
03-03-2019 18.8 (15:50) -0.4 (00:00) 9.2 10.56 (16:30) 5.28 (16:10) 0 0 0 0 0
02-03-2019 23 (16:00) 4.5 (00:00) 13.8 9.44 (00:20) 5.56 (00:10) 0 0 0 0 0
01-03-2019 21.6 (17:10) -0.5 (-00:0) 10.6 9.44 (23:59) 5.56 (15:30) 0 0 0 0 0
28-02-2019 19.4 (16:20) 2.5 (00:00) 10.9 8.33 (03:10) 4.17 (03:20) 0 0 0 0 0
27-02-2019 19.5 (16:20) 0.9 (00:00) 10.2 7.5 (14:20) 3.61 (13:20) 0 0 0 0 0
26-02-2019 22.1 (16:40) 0.3 (00:00) 11.2 9.44 (14:50) 3.89 (17:00) 0 0 0 0 0
25-02-2019 21.4 (17:40) -0.2 (00:00) 10.6 6.67 (14:50) 4.17 (14:50) 0 0 0 0 0
24-02-2019 22.6 (17:00) -0.4 (00:00) 11.1 5.28 (16:10) 3.33 (16:10) 0 0 0 0 0
23-02-2019 21 (15:20) 0 (00:00) 10.5 5.83 (16:50) 3.61 (17:00) 0 0 0 0 0
22-02-2019 19.6 (16:00) -1.3 (-00:0) 9.2 9.72 (13:10) 4.17 (13:30) 0 0 0 0 0
21-02-2019 18.5 (15:50) -1.1 (-00:0) 8.7 10.56 (14:30) 5.56 (14:30) 0 0 0 0 0
20-02-2019 15.2 (16:30) 1.5 (00:00) 8.3 5.83 (16:10) 3.33 (13:20) 0 0 0 0 0

Gráficas

Temp. máximas Temp. mínimas Temp. medias Precipitaciones Rachas de viento máximas Velocidades máximas media en intervalos de 10 minutos

Datos horarios

Fecha y hora oficial Temperatura (ºC) Velocidad del viento (km/h) Dirección del viento Racha (km/h) Dirección de racha Precipitación (mm) Presión (hPa) Tendencia (hPa) Humedad (%)
2019-03-21 23:00:00 6.5 4 Noroeste 8 Norte 0 -- -- 69
2019-03-21 22:00:00 8.7 2 Noroeste 5 Norte 0 -- -- 62
2019-03-21 21:00:00 10.5 0 Calma 6 Este 0 -- -- 56
2019-03-21 20:00:00 12.3 0 Calma 12 Sudoeste 0 -- -- 51
2019-03-21 19:00:00 15 6 Oeste 14 Sudoeste 0 -- -- 43
2019-03-21 18:00:00 16.7 5 Oeste 15 Oeste 0 -- -- 37
2019-03-21 17:00:00 16.9 10 Oeste 19 Oeste 0 -- -- 33
2019-03-21 16:00:00 17.4 9 Oeste 20 Oeste 0 -- -- 34
2019-03-21 15:00:00 17.7 6 Noroeste 21 Oeste 0 -- -- 37
2019-03-21 14:00:00 17 9 Sur 21 Este 0 -- -- 34
2019-03-21 13:00:00 15.7 11 Este 22 Este 0 -- -- 37
2019-03-21 12:00:00 14 10 Este 17 Este 0 -- -- 42
2019-03-21 11:00:00 11.2 5 Este 10 Este 0 -- -- 50
2019-03-21 10:00:00 7.1 2 Sudeste 4 Sudeste 0 -- -- 60
2019-03-21 09:00:00 1.9 0 Calma 5 Noroeste 0 -- -- 91
2019-03-21 08:00:00 -1.7 0 Calma 4 Noroeste 0 -- -- 93
2019-03-21 07:00:00 -1.1 0 Calma 4 Norte 0 -- -- 93
2019-03-21 06:00:00 -1.1 2 Norte 4 Norte 0 -- -- 91
2019-03-21 05:00:00 -0.5 2 Norte 5 Norte 0 -- -- 90
2019-03-21 04:00:00 0.3 2 Norte 5 Norte 0 -- -- 87
2019-03-21 03:00:00 1 2 Noroeste 6 Norte 0 -- -- 85
2019-03-21 02:00:00 2.4 3 Noroeste 8 Norte 0 -- -- 79
2019-03-21 01:00:00 3.5 4 Noroeste 10 Norte 0 -- -- 74
2019-03-21 00:00:00 3.3 2 Norte 6 Noroeste 0 -- -- 75
2019-03-20 23:00:00 4.8 3 Noroeste 9 Oeste 0 -- -- 70
2019-03-20 22:00:00 6.1 4 Noroeste 9 Sudoeste 0 -- -- 65
2019-03-20 21:00:00 7.9 4 Noroeste 8 Oeste 0 -- -- 60
2019-03-20 20:00:00 11.3 4 Oeste 8 Noroeste 0 -- -- 51
2019-03-20 19:00:00 15.2 4 Norte 28 Sudeste 0 -- -- 36
2019-03-20 18:00:00 16.5 7 Este 25 Sudeste 0 -- -- 32
2019-03-20 17:00:00 15.9 13 Sudeste 36 Sudeste 0 -- -- 32
2019-03-20 16:00:00 15.7 15 Este 29 Este 0 -- -- 32
2019-03-20 15:00:00 15.5 14 Sudeste 31 Sudeste 0 -- -- 35
2019-03-20 14:00:00 14.8 14 Sudeste 31 Este 0 -- -- 35
2019-03-20 13:00:00 13.9 18 Este 32 Este 0 -- -- 35
2019-03-20 12:00:00 12.9 19 Este 35 Este 0 -- -- 41
2019-03-20 11:00:00 11.5 14 Sudeste 33 Sudeste 0 -- -- 48
2019-03-20 10:00:00 9.9 14 Sudeste 38 Sudeste 0 -- -- 55
2019-03-20 09:00:00 7.1 17 Este 37 Este 0 -- -- 64
2019-03-20 08:00:00 2.3 5 Norte 10 Nordeste 0 -- -- 82
2019-03-20 07:00:00 3.1 5 Norte 13 Nordeste 0 -- -- 77
2019-03-20 06:00:00 4.1 4 Norte 23 Sudeste 0 -- -- 72
2019-03-20 05:00:00 5.2 4 Noroeste 13 Sudoeste 0 -- -- 68
2019-03-20 04:00:00 6.3 6 Este 21 Sur 0 -- -- 64
2019-03-20 03:00:00 7.2 5 Sudeste 15 Sur 0 -- -- 60
2019-03-20 02:00:00 7.5 5 Oeste 13 Noroeste 0 -- -- 61
2019-03-20 01:00:00 8.2 7 Oeste 17 Sudoeste 0 -- -- 60
2019-03-20 00:00:00 10.2 7 Oeste 27 Nordeste 0 -- -- 53
2019-03-19 23:00:00 11.4 8 Nordeste 30 Nordeste 0 -- -- 50
2019-03-19 22:00:00 7.8 4 Oeste 13 Oeste 0 -- -- 65
2019-03-19 21:00:00 8.8 2 Oeste 6 Noroeste 0 -- -- 60
2019-03-19 20:00:00 11.8 0 Calma 19 Norte 0 -- -- 49
2019-03-19 19:00:00 15.1 5 Nordeste 24 Sudeste 0 -- -- 38
2019-03-19 18:00:00 15.7 10 Este 36 Este 0 -- -- 36
2019-03-19 17:00:00 16.1 12 Este 46 Este 0 -- -- 36
2019-03-19 16:00:00 16.1 22 Este 38 Este 0 -- -- 36
2019-03-19 15:00:00 16 19 Este 40 Este 0 -- -- 37
2019-03-19 14:00:00 15.6 19 Sudeste 34 Este 0 -- -- 38
2019-03-19 13:00:00 15.2 12 Este 38 Este 0 -- -- 40
2019-03-19 12:00:00 14.3 14 Este 37 Este 0 -- -- 40
2019-03-19 11:00:00 12.9 11 Este 30 Sudeste 0 -- -- 40
2019-03-19 10:00:00 10.9 12 Este 28 Este 0 -- -- 50
2019-03-19 09:00:00 4.6 6 Noroeste 12 Noroeste 0 -- -- 77
2019-03-19 08:00:00 1.1 3 Norte 10 Norte 0 -- -- 88
2019-03-19 07:00:00 0.8 4 Noroeste 7 Oeste 0 -- -- 89
2019-03-19 06:00:00 0.5 3 Norte 6 Norte 0 -- -- 90
2019-03-19 05:00:00 0.8 0 Calma 5 Norte 0 -- -- 87
2019-03-19 04:00:00 1.2 2 Este 6 Norte 0 -- -- 85
2019-03-19 03:00:00 2 0 Calma 6 Norte 0 -- -- 83
2019-03-19 02:00:00 3 3 Noroeste 9 Norte 0 -- -- 78
2019-03-19 01:00:00 3.7 5 Noroeste 10 Noroeste 0 -- -- 74
2019-03-19 00:00:00 4.4 3 Noroeste 9 Oeste 0 -- -- 72
2019-03-18 23:00:00 5.4 3 Noroeste 7 Noroeste 0 -- -- 67
2019-03-18 22:00:00 7.3 6 Oeste 9 Oeste 0 -- -- 62
2019-03-18 21:00:00 9 3 Noroeste 5 Norte 0 -- -- 58
2019-03-18 20:00:00 11.1 5 Sudeste 13 Norte 0 -- -- 51
2019-03-18 19:00:00 14.7 5 Nordeste 14 Sudeste 0 -- -- 35
2019-03-18 18:00:00 15.6 11 Este 26 Sudeste 0 -- -- 32
2019-03-18 17:00:00 15.5 14 Este 28 Este 0 -- -- 33
2019-03-18 16:00:00 16 17 Este 36 Este 0 -- -- 32
2019-03-18 15:00:00 16 14 Este 30 Sudeste 0 -- -- 29
2019-03-18 14:00:00 14.8 12 Este 36 Este 0 -- -- 28
2019-03-18 13:00:00 14.2 17 Este 32 Este 0 -- -- 30
2019-03-18 12:00:00 13.5 12 Este 40 Sudeste 0 -- -- 30
2019-03-18 11:00:00 12.8 15 Este 31 Este 0 -- -- 29
2019-03-18 10:00:00 9.1 3 Norte 13 Norte 0 -- -- 48
2019-03-18 09:00:00 4 3 Oeste 13 Noroeste 0 -- -- 71
2019-03-18 08:00:00 2.2 6 Noroeste 12 Oeste 0 -- -- 80
2019-03-18 07:00:00 2.8 5 Noroeste 12 Noroeste 0 -- -- 80
2019-03-18 06:00:00 3.8 5 Norte 21 Este 0 -- -- 76
2019-03-18 05:00:00 4.3 4 Norte 12 Norte 0 -- -- 81
2019-03-18 04:00:00 5.7 4 Noroeste 19 Este 0 -- -- 75
2019-03-18 03:00:00 6.2 9 Este 27 Sudeste 0 -- -- 76
2019-03-18 02:00:00 5.3 4 Norte 10 Norte 0 -- -- 82
2019-03-18 01:00:00 6.9 3 Nordeste 14 Oeste 0 -- -- 76
2019-03-18 00:00:00 8.8 9 Oeste 18 Oeste 0 -- -- 70
2019-03-17 23:00:00 8.7 2 Noroeste 8 Noroeste 0 -- -- 75
2019-03-17 22:00:00 8.8 0 Calma 8 Norte 0 -- -- 77
2019-03-17 21:00:00 11.5 0 Calma 14 Oeste 0 -- -- 66
2019-03-17 20:00:00 14.5 5 Oeste 18 Noroeste 0 -- -- 57
2019-03-17 19:00:00 15.5 5 Oeste 16 Oeste 0 -- -- 51
2019-03-17 18:00:00 16.3 9 Oeste 24 Oeste 0 -- -- 47
2019-03-17 17:00:00 16.2 5 Oeste 23 Oeste 0 -- -- 49
2019-03-17 16:00:00 16.4 6 Norte 31 Oeste 0 -- -- 48
2019-03-17 15:00:00 17.1 13 Noroeste 32 Oeste 0 -- -- 49
2019-03-17 14:00:00 16.9 8 Norte 28 Noroeste 0 -- -- 50
2019-03-17 13:00:00 15.2 13 Oeste 37 Oeste 0 -- -- 54
2019-03-17 12:00:00 13 22 Sudoeste 35 Oeste 0 -- -- 59
2019-03-17 11:00:00 10.9 21 Oeste 32 Oeste 0 -- -- 63
2019-03-17 10:00:00 9 8 Oeste 30 Oeste 0 -- -- 68
2019-03-17 09:00:00 8.2 10 Oeste 35 Norte 0 -- -- 72
2019-03-17 08:00:00 6.4 9 Sur 27 Sudoeste 0 -- -- 78
2019-03-17 07:00:00 5.8 4 Oeste 23 Oeste 0 -- -- 76
2019-03-17 06:00:00 7.7 17 Oeste 42 Oeste 0 -- -- 70
2019-03-17 05:00:00 3.2 4 Oeste 29 Noroeste 0 -- -- 91
2019-03-17 04:00:00 4.1 2 Noroeste 6 Noroeste 0 -- -- 86
2019-03-17 03:00:00 5.4 3 Norte 5 Norte 0 -- -- 83
2019-03-17 02:00:00 6.9 5 Norte 10 Norte 0 -- -- 77
2019-03-17 01:00:00 8.7 5 Noroeste 13 Noroeste 0 -- -- 69
2019-03-17 00:00:00 8.2 5 Norte 12 Norte 0 -- -- 72
2019-03-16 23:00:00 8.5 5 Norte 9 Norte 0 -- -- 71
2019-03-16 22:00:00 9.2 4 Noroeste 7 Noroeste 0 -- -- 67
2019-03-16 21:00:00 11.1 3 Noroeste 6 Oeste 0 -- -- 60
2019-03-16 20:00:00 14 2 Noroeste 8 Norte 0 -- -- 51
2019-03-16 19:00:00 19.5 5 Norte 12 Oeste 0 -- -- 36
2019-03-16 18:00:00 23.5 4 Sudoeste 22 Oeste 0 -- -- 26
2019-03-16 17:00:00 23.7 8 Oeste 24 Oeste 0 -- -- 25
2019-03-16 16:00:00 23.8 7 Sur 24 Oeste 0 -- -- 28
2019-03-16 15:00:00 23.3 8 Sur 23 Este 0 -- -- 28
2019-03-16 14:00:00 23.1 8 Sur 20 Sur 0 -- -- 30
2019-03-16 13:00:00 22.2 8 Sur 22 Sur 0 -- -- 28
2019-03-16 12:00:00 19.5 5 Sudeste 12 Sur 0 -- -- 40
2019-03-16 11:00:00 15 6 Este 12 Sudeste 0 -- -- 53
2019-03-16 10:00:00 8.8 0 Calma 4 Este 0 -- -- 78
2019-03-16 09:00:00 3.2 0 Calma 4 Norte 0 -- -- 97
2019-03-16 08:00:00 0.9 0 Calma 2 Norte 0 -- -- 95
2019-03-16 07:00:00 1.3 0 Calma 3 Norte 0 -- -- 95
2019-03-16 06:00:00 1.6 0 Calma 3 Norte 0 -- -- 94
2019-03-16 05:00:00 1.9 0 Calma 4 Norte 0 -- -- 93
2019-03-16 04:00:00 2.6 2 Noroeste 4 Noroeste 0 -- -- 93
2019-03-16 03:00:00 3.1 0 Calma 4 Norte 0 -- -- 90
2019-03-16 02:00:00 4.2 0 Calma 4 Noroeste 0 -- -- 90
2019-03-16 01:00:00 5.3 3 Norte 6 Noroeste 0 -- -- 87
2019-03-16 00:00:00 6 2 Norte 4 Norte 0 -- -- 85
2019-03-15 23:00:00 7.4 3 Noroeste 6 Norte 0 -- -- 81
2019-03-15 22:00:00 8.9 4 Norte 6 Noroeste 0 -- -- 75
2019-03-15 21:00:00 11.3 5 Oeste 9 Oeste 0 -- -- 68
2019-03-15 20:00:00 14.4 2 Noroeste 6 Norte 0 -- -- 60
2019-03-15 19:00:00 20.2 2 Noroeste 15 Este 0 -- -- 43
2019-03-15 18:00:00 22.3 8 Este 22 Este 0 -- -- 35
2019-03-15 17:00:00 22.8 13 Este 26 Este 0 -- -- 34
2019-03-15 16:00:00 23.2 14 Este 28 Este 0 -- -- 31
2019-03-15 15:00:00 23.2 16 Este 26 Este 0 -- -- 29
2019-03-15 14:00:00 22.6 14 Este 22 Este 0 -- -- 24
2019-03-15 13:00:00 21.3 8 Este 14 Este 0 -- -- 26
2019-03-15 12:00:00 18 3 Sur 6 Nordeste 0 -- -- 32
2019-03-15 11:00:00 13.1 0 Calma 5 Oeste 0 -- -- 41
2019-03-15 10:00:00 6.1 0 Calma 3 Norte 0 -- -- 72
2019-03-15 09:00:00 1.4 0 Calma 5 Norte 0 -- -- 93
2019-03-15 08:00:00 -1.3 0 Calma 6 Norte 0 -- -- 93
2019-03-15 07:00:00 -1.6 0 Calma 3 Norte 0 -- -- 92
2019-03-15 06:00:00 -1.2 0 Calma 4 Noroeste 0 -- -- 91
2019-03-15 05:00:00 -0.5 3 Noroeste 5 Noroeste 0 -- -- 91
2019-03-15 04:00:00 -0.1 0 Calma 3 Sudeste 0 -- -- 89
2019-03-15 03:00:00 0.9 0 Calma 4 Sudeste 0 -- -- 87
2019-03-15 02:00:00 2.4 0 Calma 6 Noroeste 0 -- -- 82
2019-03-15 01:00:00 3.2 3 Noroeste 6 Norte 0 -- -- 80
2019-03-15 00:00:00 4.6 5 Norte 10 Norte 0 -- -- 73
2019-03-14 23:00:00 5.5 5 Norte 10 Norte 0 -- -- 69
2019-03-14 22:00:00 6.6 4 Norte 9 Norte 0 -- -- 65
2019-03-14 21:00:00 8.2 5 Norte 9 Norte 0 -- -- 60
2019-03-14 20:00:00 11.1 4 Noroeste 10 Norte 0 -- -- 51
2019-03-14 19:00:00 16.8 3 Norte 13 Oeste 0 -- -- 37
2019-03-14 18:00:00 21.3 3 Sudeste 15 Sudeste 0 -- -- 27
2019-03-14 17:00:00 21.4 5 Este 13 Este 0 -- -- 22
2019-03-14 16:00:00 20.9 5 Sudeste 15 Sudoeste 0 -- -- 26
2019-03-14 15:00:00 20.4 5 Sudeste 13 Sur 0 -- -- 30
2019-03-14 14:00:00 18.9 6 Sudeste 14 Este 0 -- -- 30
2019-03-14 13:00:00 17.1 4 Oeste 10 Este 0 -- -- 33
2019-03-14 12:00:00 14.8 3 Sudoeste 9 Este 0 -- -- 39
2019-03-14 11:00:00 12 3 Este 5 Este 0 -- -- 46
2019-03-14 10:00:00 6.2 0 Calma 4 Nordeste 0 -- -- 72
2019-03-14 09:00:00 1.6 2 Norte 5 Norte 0 -- -- 93
2019-03-14 08:00:00 -0.5 3 Norte 5 Norte 0 -- -- 94
2019-03-14 07:00:00 0 0 Calma 6 Norte 0 -- -- 92
2019-03-14 06:00:00 0.7 2 Noroeste 8 Sudoeste 0 -- -- 91
2019-03-14 05:00:00 0.5 4 Noroeste 9 Noroeste 0 -- -- 93
2019-03-14 04:00:00 0.5 3 Nordeste 5 Norte 0 -- -- 92
2019-03-14 03:00:00 1.1 0 Calma 6 Este 0 -- -- 90
2019-03-14 02:00:00 2.3 3 Norte 7 Norte 0 -- -- 87
2019-03-14 01:00:00 2.4 0 Calma 6 Este 0 -- -- 87
2019-03-14 00:00:00 3.5 3 Noroeste 7 Norte 0 -- -- 83
2019-03-13 23:00:00 4.3 0 Calma 5 Norte 0 -- -- 78
2019-03-13 22:00:00 5.6 0 Calma 7 Norte 0 -- -- 73
2019-03-13 21:00:00 7.1 2 Noroeste 7 Norte 0 -- -- 68
2019-03-13 20:00:00 9.1 2 Norte 8 Norte 0 -- -- 61
2019-03-13 19:00:00 13.8 3 Noroeste 18 Oeste 0 -- -- 41
2019-03-13 18:00:00 15.2 5 Norte 18 Noroeste 0 -- -- 36
2019-03-13 17:00:00 15.6 7 Norte 25 Oeste 0 -- -- 34
2019-03-13 16:00:00 16 8 Noroeste 31 Oeste 0 -- -- 35
2019-03-13 15:00:00 15.1 6 Norte 24 Nordeste 0 -- -- 36
2019-03-13 14:00:00 14.5 9 Noroeste 28 Sudeste 0 -- -- 36
2019-03-13 13:00:00 13.4 15 Este 31 Nordeste 0 -- -- 35
2019-03-13 12:00:00 12.5 10 Nordeste 24 Norte 0 -- -- 37
2019-03-13 11:00:00 11.1 9 Nordeste 22 Nordeste 0 -- -- 37
2019-03-13 10:00:00 10.1 7 Este 20 Sur 0 -- -- 46
2019-03-13 09:00:00 8.4 4 Nordeste 29 Sudoeste 0 -- -- 58
2019-03-13 08:00:00 6.4 17 Oeste 36 Oeste 0 -- -- 74
2019-03-13 07:00:00 6.2 20 Oeste 35 Oeste 0 -- -- 73
2019-03-13 06:00:00 8.2 10 Oeste 25 Oeste 0 -- -- 69
2019-03-13 05:00:00 10 13 Oeste 27 Oeste 0 -- -- 66
2019-03-13 04:00:00 11.2 12 Noroeste 28 Oeste 0 -- -- 66
2019-03-13 03:00:00 11.6 9 Oeste 20 Oeste 0 -- -- 70
2019-03-13 02:00:00 11.5 9 Oeste 19 Oeste 0 -- -- 69
2019-03-13 01:00:00 11.4 7 Sudoeste 14 Noroeste 0 -- -- 68
2019-03-13 00:00:00 12.1 5 Oeste 24 Sudoeste 0 -- -- 65
2019-03-12 23:00:00 12.7 10 Sudoeste 19 Oeste 0 -- -- 61
2019-03-12 22:00:00 13.1 10 Sudoeste 25 Oeste 0 -- -- 61
2019-03-12 21:00:00 14.1 11 Oeste 25 Oeste 0 -- -- 62
2019-03-12 20:00:00 15 10 Oeste 33 Sudoeste 0 -- -- 60
2019-03-12 19:00:00 16.9 14 Oeste 30 Oeste 0 -- -- 49
2019-03-12 18:00:00 19.6 10 Oeste 31 Oeste 0 -- -- 39
2019-03-12 17:00:00 20.9 15 Oeste 40 Oeste 0 -- -- 36
2019-03-12 16:00:00 21.7 10 Sudoeste 24 Sudeste 0 -- -- 44
2019-03-12 15:00:00 21.3 8 Oeste 22 Sudoeste 0 -- -- 43
2019-03-12 14:00:00 20.6 9 Oeste 29 Oeste 0 -- -- 43
2019-03-12 13:00:00 20 9 Sudoeste 20 Sudoeste 0 -- -- 46
2019-03-12 12:00:00 18.7 6 Este 14 Sudeste 0 -- -- 52
2019-03-12 11:00:00 13.5 5 Este 9 Este 0 -- -- 70
2019-03-12 10:00:00 8.1 0 Calma 4 Sudeste 0 -- -- 93
2019-03-12 09:00:00 3.7 0 Calma 3 Sudeste 0 -- -- 98
2019-03-12 08:00:00 1.7 2 Norte 3 Norte 0 -- -- 96
2019-03-12 07:00:00 2.1 0 Calma 3 Norte 0 -- -- 96
2019-03-12 06:00:00 2.7 2 Noroeste 4 Norte 0 -- -- 96
2019-03-12 05:00:00 2.7 0 Calma 3 Norte 0 -- -- 94
2019-03-12 04:00:00 3.4 0 Calma 4 Norte 0 -- -- 94
2019-03-12 03:00:00 3.9 2 Norte 5 Norte 0 -- -- 93
2019-03-12 02:00:00 4.6 3 Noroeste 5 Norte 0 -- -- 92
2019-03-12 01:00:00 5 0 Calma 6 Noroeste 0 -- -- 90
2019-03-12 00:00:00 6.4 3 Noroeste 6 Noroeste 0 -- -- 88
2019-03-11 23:00:00 7.2 3 Norte 5 Norte 0 -- -- 84
2019-03-11 22:00:00 8.6 3 Norte 5 Norte 0 -- -- 80
2019-03-11 21:00:00 10.7 3 Noroeste 5 Oeste 0 -- -- 73
2019-03-11 20:00:00 13.4 3 Norte 6 Noroeste 0 -- -- 66
2019-03-11 19:00:00 18.5 4 Norte 12 Sudeste 0 -- -- 50
2019-03-11 18:00:00 21.1 8 Sudeste 18 Sudeste 0 -- -- 39
2019-03-11 17:00:00 21.7 11 Sudeste 19 Sudeste 0 -- -- 36
2019-03-11 16:00:00 21.5 10 Este 18 Este 0 -- -- 40
2019-03-11 15:00:00 21.3 9 Este 17 Este 0 -- -- 45
2019-03-11 14:00:00 20 6 Sudeste 14 Sur 0 -- -- 46
2019-03-11 13:00:00 19.1 5 Sur 14 Sudeste 0 -- -- 50
2019-03-11 12:00:00 17.7 9 Este 20 Sudeste 0 -- -- 58
2019-03-11 11:00:00 16.6 10 Sudeste 25 Sudeste 0 -- -- 61
2019-03-11 10:00:00 13 0 Calma 9 Noroeste 0 -- -- 75
2019-03-11 09:00:00 8.4 5 Norte 9 Nordeste 0 -- -- 90
2019-03-11 08:00:00 7.1 5 Norte 10 Nordeste 0 -- -- 91
2019-03-11 07:00:00 7.6 4 Noroeste 10 Norte 0 -- -- 89
2019-03-11 06:00:00 8.4 3 Nordeste 11 Oeste 0 -- -- 87
2019-03-11 05:00:00 10.7 5 Oeste 25 Sudoeste 0 -- -- 79
2019-03-11 04:00:00 13.2 17 Sudoeste 37 Oeste 0 -- -- 70
2019-03-11 03:00:00 12.1 15 Oeste 26 Sudoeste 0 -- -- 75
2019-03-11 02:00:00 12.7 13 Sudoeste 23 Oeste 0 -- -- 74
2019-03-11 01:00:00 13.4 11 Oeste 18 Sudoeste 0 -- -- 72
2019-03-11 00:00:00 14.4 7 Oeste 26 Sudoeste 0 -- -- 69
2019-03-10 23:00:00 14.1 17 Sudoeste 26 Oeste 0 -- -- 68
2019-03-10 22:00:00 13 9 Oeste 19 Oeste 0 -- -- 71
2019-03-10 21:00:00 14.9 8 Oeste 19 Oeste 0 -- -- 63
2019-03-10 20:00:00 17.1 11 Oeste 21 Noroeste 0 -- -- 56
2019-03-10 19:00:00 19.1 7 Oeste 27 Oeste 0 -- -- 51
2019-03-10 18:00:00 21.1 14 Oeste 31 Sudoeste 0 -- -- 43
2019-03-10 17:00:00 22 15 Oeste 30 Sudoeste 0 -- -- 39
2019-03-10 16:00:00 22.3 15 Sudoeste 32 Sudoeste 0 -- -- 36
2019-03-10 15:00:00 22 12 Oeste 33 Oeste 0 -- -- 37
2019-03-10 14:00:00 21.3 15 Sudoeste 33 Oeste 0 -- -- 40
2019-03-10 13:00:00 20.6 15 Oeste 31 Sudoeste 0 -- -- 46
2019-03-10 12:00:00 19.2 17 Oeste 26 Oeste 0 -- -- 52
2019-03-10 11:00:00 14.5 3 Sudeste 6 Sudeste 0 -- -- 79
2019-03-10 10:00:00 8.6 0 Calma 3 Nordeste 0 -- -- 99
2019-03-10 09:00:00 4.5 2 Noroeste 4 Norte 0 -- -- 99
2019-03-10 08:00:00 2.7 0 Calma 3 Noroeste 0 -- -- 97
2019-03-10 07:00:00 3.1 2 Norte 3 Norte 0 -- -- 96
2019-03-10 06:00:00 3.3 0 Calma 4 Norte 0 -- -- 96
2019-03-10 05:00:00 4 2 Noroeste 5 Norte 0 -- -- 97
2019-03-10 04:00:00 4.1 0 Calma 5 Norte 0 -- -- 95
2019-03-10 03:00:00 4.6 0 Calma 3 Noroeste 0 -- -- 94
2019-03-10 02:00:00 5.2 0 Calma 4 Noroeste 0 -- -- 94
2019-03-10 01:00:00 5.9 0 Calma 5 Norte 0 -- -- 93
2019-03-10 00:00:00 6.9 0 Calma 5 Noroeste 0 -- -- 93
2019-03-09 23:00:00 7.6 0 Calma 4 Norte 0 -- -- 90
2019-03-09 22:00:00 8.6 0 Calma 6 Norte 0 -- -- 87
2019-03-09 21:00:00 10.4 4 Noroeste 8 Noroeste 0 -- -- 83
2019-03-09 20:00:00 13.5 3 Noroeste 8 Oeste 0 -- -- 73
2019-03-09 19:00:00 17.3 4 Norte 10 Oeste 0 -- -- 60
2019-03-09 18:00:00 19.2 7 Este 17 Este 0 -- -- 50
2019-03-09 17:00:00 19.6 11 Este 20 Este 0 -- -- 47
2019-03-09 16:00:00 19.6 10 Este 20 Este 0 -- -- 47
2019-03-09 15:00:00 19.1 12 Este 19 Este 0 -- -- 47
2019-03-09 14:00:00 18.3 10 Este 17 Sudeste 0 -- -- 45
2019-03-09 13:00:00 17.3 7 Este 14 Este 0 -- -- 45
2019-03-09 12:00:00 15.3 6 Este 12 Este 0 -- -- 54
2019-03-09 11:00:00 12.1 4 Este 9 Sudeste 0 -- -- 70
2019-03-09 10:00:00 6.8 0 Calma 3 Sudeste 0 -- -- 96
2019-03-09 09:00:00 3.4 2 Norte 5 Norte 0 -- -- 99
2019-03-09 08:00:00 1.8 2 Norte 4 Noroeste 0 -- -- 97
2019-03-09 07:00:00 1.5 2 Noroeste 4 Este 0 -- -- 97
2019-03-09 06:00:00 1.9 2 Norte 5 Noroeste 0 -- -- 96
2019-03-09 05:00:00 2.4 3 Noroeste 5 Noroeste 0 -- -- 96
2019-03-09 04:00:00 2.5 2 Noroeste 6 Noroeste 0 -- -- 95
2019-03-09 03:00:00 3.3 3 Noroeste 6 Noroeste 0 -- -- 95
2019-03-09 02:00:00 3.4 0 Calma 4 Este 0 -- -- 94
2019-03-09 01:00:00 3.8 2 Sudeste 6 Este 0 -- -- 93
2019-03-09 00:00:00 4.4 0 Calma 6 Norte 0 -- -- 91
2019-03-08 23:00:00 5.1 2 Nordeste 6 Noroeste 0 -- -- 89
2019-03-08 22:00:00 6.1 4 Noroeste 8 Norte 0 -- -- 86
2019-03-08 21:00:00 7.8 4 Noroeste 8 Oeste 0 -- -- 80
2019-03-08 20:00:00 10.4 4 Noroeste 8 Oeste 0 -- -- 70
2019-03-08 19:00:00 14.4 4 Oeste 19 Oeste 0 -- -- 55
2019-03-08 18:00:00 15.9 12 Noroeste 24 Sudoeste 0 -- -- 45
2019-03-08 17:00:00 16.6 9 Oeste 21 Sudoeste 0 -- -- 45
2019-03-08 16:00:00 16.5 4 Nordeste 19 Este 0 -- -- 44
2019-03-08 15:00:00 15.5 11 Este 21 Este 0 -- -- 45
2019-03-08 14:00:00 15.3 10 Sudeste 21 Sudeste 0 -- -- 50
2019-03-08 13:00:00 14.1 4 Este 21 Este 0 -- -- 57
2019-03-08 12:00:00 12.7 5 Este 23 Sudeste 0 -- -- 60
2019-03-08 11:00:00 10.4 9 Oeste 15 Oeste 0 -- -- 74
2019-03-08 10:00:00 6.9 0 Calma 6 Norte 0 -- -- 98
2019-03-08 09:00:00 3.8 3 Noroeste 5 Noroeste 0 -- -- 99
2019-03-08 08:00:00 2.4 0 Calma 5 Este 0 -- -- 98
2019-03-08 07:00:00 3 0 Calma 6 Sudeste 0 -- -- 98
2019-03-08 06:00:00 3 0 Calma 6 Norte 0 -- -- 97
2019-03-08 05:00:00 3.4 3 Noroeste 12 Oeste 0 -- -- 96
2019-03-08 04:00:00 3.9 4 Noroeste 9 Norte 0 -- -- 97
2019-03-08 03:00:00 4.7 3 Noroeste 8 Norte -- -- -- 96
2019-03-08 02:00:00 6.1 3 Noroeste 5 Norte 0 -- -- 95
2019-03-08 01:00:00 7 0 Calma 3 Norte 0.2 -- -- 96
2019-03-08 00:00:00 7.2 0 Calma 8 Noroeste 0 -- -- 96
2019-03-07 23:00:00 7.3 2 Oeste 4 Oeste 1.4 -- -- 96
2019-03-07 22:00:00 7.3 0 Calma 5 Norte 0.2 -- -- 95
2019-03-07 21:00:00 7.3 2 Nordeste 9 Nordeste 0.2 -- -- 94
2019-03-07 20:00:00 7.7 5 Nordeste 10 Nordeste 0 -- -- 93
2019-03-07 19:00:00 8.4 3 Sur 22 Este 1.8 -- -- 86
2019-03-07 18:00:00 8.9 5 Este 18 Sudeste 0.6 -- -- 86
2019-03-07 17:00:00 9.7 10 Este 26 Este 0 -- -- 76
2019-03-07 16:00:00 10.2 8 Sudoeste 29 Sudoeste 0 -- -- 64
2019-03-07 15:00:00 10.4 8 Sudoeste 26 Sudeste 0 -- -- 64
2019-03-07 14:00:00 9.9 6 Sur 29 Sudeste 0 -- -- 65
2019-03-07 13:00:00 8.9 5 Sudeste 19 Sudeste 0 -- -- 72
2019-03-07 12:00:00 9.1 4 Sudeste 24 Este 0 -- -- 68
2019-03-07 11:00:00 7.5 9 Este 16 Este 0 -- -- 76
2019-03-07 10:00:00 3.9 0 Calma 3 Sudeste 0 -- -- 93
2019-03-07 09:00:00 1.4 0 Calma 4 Norte 0 -- -- 97
2019-03-07 08:00:00 0.4 3 Norte 5 Norte 0 -- -- 95
2019-03-07 07:00:00 0.5 0 Calma 4 Norte 0 -- -- 94
2019-03-07 06:00:00 1.1 0 Calma 4 Sudeste 0 -- -- 92
2019-03-07 05:00:00 2.5 0 Calma 9 Noroeste 0 -- -- 89
2019-03-07 04:00:00 4.5 0 Calma 20 Noroeste 0 -- -- 84
2019-03-07 03:00:00 5.4 2 Norte 12 Este 0 -- -- 82
2019-03-07 02:00:00 4.9 3 Oeste 10 Este 0 -- -- 82
2019-03-07 01:00:00 7.1 5 Oeste 27 Oeste 0 -- -- 71
2019-03-07 00:00:00 7.3 9 Oeste 25 Oeste 0 -- -- 70
2019-03-06 23:00:00 7.7 11 Noroeste 29 Sudoeste 0 -- -- 69
2019-03-06 22:00:00 8.5 14 Oeste 35 Sudoeste 0 -- -- 66
2019-03-06 21:00:00 9 10 Oeste 41 Oeste 0 -- -- 67
2019-03-06 20:00:00 9.6 11 Oeste 30 Oeste 0 -- -- 64
2019-03-06 19:00:00 9.7 12 Oeste 34 Sudoeste 0 -- -- 66
2019-03-06 18:00:00 10.2 13 Oeste 51 Sudoeste 0.2 -- -- 64
2019-03-06 17:00:00 11.5 8 Oeste 28 Sudoeste 0 -- -- 62
2019-03-06 16:00:00 11.2 11 Sudoeste 29 Sudoeste 0 -- -- 61
2019-03-06 15:00:00 10.5 3 Sudoeste 29 Sudoeste 0 -- -- 71
2019-03-06 14:00:00 9.7 8 Oeste 35 Oeste 0.2 -- -- 73
2019-03-06 13:00:00 8.7 18 Oeste 59 Oeste 2.2 -- -- 79
2019-03-06 12:00:00 10 9 Sudoeste 39 Sudoeste 3 -- -- 88
2019-03-06 11:00:00 10.4 17 Sur 46 Sur 2.8 -- -- 82
2019-03-06 10:00:00 10.5 13 Sur 36 Sur 0.2 -- -- 85
2019-03-06 09:00:00 10.5 10 Oeste 39 Sudoeste 4 -- -- 78
2019-03-06 08:00:00 10.2 9 Este 35 Nordeste 11.2 -- -- 90
2019-03-06 07:00:00 10.5 13 Sudeste 38 Nordeste 6.8 -- -- 89
2019-03-06 06:00:00 11.1 12 Este 39 Este 1.4 -- -- 86
2019-03-06 05:00:00 11.5 13 Sur 41 Nordeste 2 -- -- 83
2019-03-06 04:00:00 12.2 10 Oeste 44 Sudeste 0 -- -- 80
2019-03-06 03:00:00 12.6 15 Oeste 50 Oeste 0 -- -- 76
2019-03-06 02:00:00 13 18 Sudoeste 43 Sudoeste 0.8 -- -- 76
2019-03-06 01:00:00 13.3 15 Sudoeste 45 Sudoeste 0.8 -- -- 82
2019-03-06 00:00:00 13.4 17 Sur 48 Sudeste 1 -- -- 84
2019-03-05 23:00:00 11.8 9 Este 22 Este 1.8 -- -- 94
2019-03-05 22:00:00 11.7 4 Noroeste 40 Sudeste 11.2 -- -- 95
2019-03-05 21:00:00 12 8 Este 23 Este 6 -- -- 92
2019-03-05 20:00:00 11.4 6 Este 18 Sudeste 1.2 -- -- 95
2019-03-05 19:00:00 11 8 Este 23 Nordeste 2.6 -- -- 91
2019-03-05 18:00:00 11 4 Sur 18 Este 0.2 -- -- 90
2019-03-05 17:00:00 11.1 3 Norte 16 Sudeste 0.4 -- -- 90
2019-03-05 16:00:00 11.6 5 Este 14 Sudeste 0 -- -- 80
2019-03-05 15:00:00 11.3 6 Norte 12 Este 0 -- -- 79
2019-03-05 14:00:00 11.3 4 Este 13 Este 0 -- -- 76
2019-03-05 13:00:00 10.9 8 Noroeste 19 Sudeste 0 -- -- 72
2019-03-05 12:00:00 10.5 8 Este 17 Este 0 -- -- 77
2019-03-05 11:00:00 9.3 10 Este 20 Este 0 -- -- 79
2019-03-05 10:00:00 6.8 2 Sudeste 4 Sudeste 0 -- -- 86
2019-03-05 09:00:00 4.8 0 Calma 3 Este 0 -- -- 92
2019-03-05 08:00:00 4.2 0 Calma 5 Noroeste 0 -- -- 91
2019-03-05 07:00:00 3.8 0 Calma 4 Norte 0 -- -- 90
2019-03-05 06:00:00 5.2 0 Calma 5 Nordeste 0 -- -- 85
2019-03-05 05:00:00 7 0 Calma 9 Sur 0 -- -- 83
2019-03-05 04:00:00 7.3 3 Este 6 Este 0 -- -- 83
2019-03-05 03:00:00 7.6 0 Calma 2 Sur 0 -- -- 82
2019-03-05 02:00:00 7.7 0 Calma 2 Este 0 -- -- 80
2019-03-05 01:00:00 7.8 0 Calma 7 Sudoeste 0 -- -- 78
2019-03-05 00:00:00 8.4 2 Nordeste 4 Sudoeste 0 -- -- 75
2019-03-04 23:00:00 9.8 2 Oeste 15 Oeste 0 -- -- 66
2019-03-04 22:00:00 8.7 0 Calma 7 Norte 0 -- -- 69
2019-03-04 21:00:00 9.6 0 Calma 7 Noroeste 0 -- -- 66
2019-03-04 20:00:00 12.3 4 Noroeste 12 Noroeste 0 -- -- 55
2019-03-04 19:00:00 13.6 9 Noroeste 23 Oeste 0 -- -- 52
2019-03-04 18:00:00 14.4 12 Sudoeste 33 Oeste 0 -- -- 53
2019-03-04 17:00:00 15.1 10 Oeste 30 Oeste 0 -- -- 53
2019-03-04 16:00:00 15.6 9 Oeste 32 Oeste 0 -- -- 52
2019-03-04 15:00:00 16.1 17 Oeste 36 Oeste 0 -- -- 52
2019-03-04 14:00:00 15.8 4 Sudoeste 15 Este 0 -- -- 54
2019-03-04 13:00:00 15.2 8 Oeste 22 Oeste 0 -- -- 49
2019-03-04 12:00:00 14.1 9 Noroeste 19 Oeste 0 -- -- 55
2019-03-04 11:00:00 13 5 Sur 12 Sudoeste 0 -- -- 60
2019-03-04 10:00:00 11.1 2 Oeste 5 Sudoeste 0 -- -- 77
2019-03-04 09:00:00 9.8 0 Calma 5 Norte 0 -- -- 94
2019-03-04 08:00:00 9.6 2 Oeste 4 Sudoeste 0 -- -- 94
2019-03-04 07:00:00 9.6 0 Calma 10 Este 0 -- -- 93
2019-03-04 06:00:00 9.7 2 Este 13 Este 0 -- -- 92
2019-03-04 05:00:00 9.8 5 Este 15 Este 0 -- -- 89
2019-03-04 04:00:00 8.5 0 Calma 6 Norte 0 -- -- 86
2019-03-04 03:00:00 7.2 4 Nordeste 8 Nordeste 0 -- -- 87
2019-03-04 02:00:00 6.4 3 Norte 9 Nordeste 0 -- -- 85
2019-03-04 01:00:00 6.2 4 Nordeste 10 Norte 0 -- -- 84
2019-03-04 00:00:00 6.3 5 Noroeste 9 Nordeste 0 -- -- 82
2019-03-03 23:00:00 7 3 Noroeste 8 Nordeste 0 -- -- 76
2019-03-03 22:00:00 8.2 3 Nordeste 9 Nordeste 0 -- -- 70
2019-03-03 21:00:00 8.5 3 Este 9 Nordeste 0 -- -- 64
2019-03-03 20:00:00 12.1 3 Este 15 Sudeste 0 -- -- 55
2019-03-03 19:00:00 16.3 9 Sudoeste 25 Oeste 0 -- -- 42
2019-03-03 18:00:00 18 8 Oeste 26 Oeste 0 -- -- 40
2019-03-03 17:00:00 18.2 7 Sur 38 Oeste 0 -- -- 43
2019-03-03 16:00:00 18.7 18 Oeste 32 Oeste 0 -- -- 44
2019-03-03 15:00:00 18.3 11 Sur 31 Sudoeste 0 -- -- 44
2019-03-03 14:00:00 18.6 5 Sudeste 29 Este 0 -- -- 45
2019-03-03 13:00:00 17.8 11 Este 24 Este 0 -- -- 46
2019-03-03 12:00:00 16.4 13 Este 24 Este 0 -- -- 52
2019-03-03 11:00:00 11 3 Sudoeste 9 Este 0 -- -- 66
2019-03-03 10:00:00 5.2 3 Este 6 Sudeste 0 -- -- 84
2019-03-03 09:00:00 0.4 0 Calma 4 Nordeste 0 -- -- 96
2019-03-03 08:00:00 -0.4 0 Calma 3 Sur 0 -- -- 94
2019-03-03 07:00:00 -0.2 0 Calma 3 Nordeste 0 -- -- 93
2019-03-03 06:00:00 -0.1 0 Calma 2 Norte 0 -- -- 93
2019-03-03 05:00:00 0 0 Calma 3 Noroeste 0 -- -- 91
2019-03-03 04:00:00 0.7 2 Norte 5 Norte 0 -- -- 89
2019-03-03 03:00:00 0.9 0 Calma 2 Este 0 -- -- 88
2019-03-03 02:00:00 1.9 0 Calma 3 Norte 0 -- -- 85
2019-03-03 01:00:00 3.1 0 Calma 5 Noroeste 0 -- -- 81
2019-03-03 00:00:00 4.5 3 Norte 8 Norte 0 -- -- 75
2019-03-02 23:00:00 5.5 3 Noroeste 5 Noroeste 0 -- -- 72
2019-03-02 22:00:00 6.9 4 Norte 8 Norte 0 -- -- 67
2019-03-02 21:00:00 8.8 3 Norte 8 Oeste 0 -- -- 60
2019-03-02 20:00:00 11.9 5 Oeste 11 Oeste 0 -- -- 51
2019-03-02 19:00:00 16.7 5 Oeste 15 Oeste 0 -- -- 39
2019-03-02 18:00:00 20.3 9 Sudoeste 23 Oeste 0 -- -- 25
2019-03-02 17:00:00 22.7 10 Noroeste 31 Oeste 0 -- -- 25
2019-03-02 16:00:00 23 13 Oeste 32 Oeste 0 -- -- 22
2019-03-02 15:00:00 22 3 Sudeste 12 Este 0 -- -- 37
2019-03-02 14:00:00 19.7 4 Sudeste 21 Este 0 -- -- 43
2019-03-02 13:00:00 18.5 9 Este 17 Este 0 -- -- 47
2019-03-02 12:00:00 17 5 Este 14 Sudeste 0 -- -- 51
2019-03-02 11:00:00 14.8 5 Sudoeste 23 Oeste 0 -- -- 56
2019-03-02 10:00:00 12.3 13 Oeste 29 Sudoeste 0 -- -- 67
2019-03-02 09:00:00 11 13 Oeste 30 Oeste 0 -- -- 72
2019-03-02 08:00:00 10.5 10 Oeste 28 Oeste 0 -- -- 76
2019-03-02 07:00:00 10.9 15 Oeste 34 Oeste 0 -- -- 74
2019-03-02 06:00:00 11.1 10 Oeste 26 Oeste 0 -- -- 72
2019-03-02 05:00:00 11.7 18 Oeste 32 Oeste 0 -- -- 71
2019-03-02 04:00:00 12.4 15 Oeste 28 Sudoeste 0 -- -- 67
2019-03-02 03:00:00 11.6 10 Oeste 24 Oeste 0 -- -- 72
2019-03-02 02:00:00 11.9 14 Oeste 32 Oeste 0 -- -- 72
2019-03-02 01:00:00 12.2 16 Oeste 34 Oeste 0 -- -- 72
2019-03-02 00:00:00 13 18 Oeste 34 Oeste 0 -- -- 67
2019-03-01 23:00:00 13.4 12 Oeste 25 Sudoeste 0 -- -- 65
2019-03-01 22:00:00 14.2 6 Oeste 20 Sudoeste 0 -- -- 61
2019-03-01 21:00:00 14.7 10 Oeste 22 Oeste 0 -- -- 56
2019-03-01 20:00:00 14.3 3 Oeste 13 Oeste 0 -- -- 48
2019-03-01 19:00:00 18.7 6 Noroeste 14 Noroeste 0 -- -- 36
2019-03-01 18:00:00 21.3 6 Oeste 21 Norte 0 -- -- 27
2019-03-01 17:00:00 21.1 4 Noroeste 29 Oeste 0 -- -- 28
2019-03-01 16:00:00 20.6 20 Sudoeste 32 Sudoeste 0 -- -- 31
2019-03-01 15:00:00 20.2 10 Norte 27 Este 0 -- -- 36
2019-03-01 14:00:00 19.2 13 Este 22 Este 0 -- -- 37
2019-03-01 13:00:00 17.8 10 Este 19 Este 0 -- -- 39
2019-03-01 12:00:00 15 8 Este 12 Este 0 -- -- 50
2019-03-01 11:00:00 9.6 2 Sur 6 Este 0 -- -- 69
2019-03-01 10:00:00 3.8 0 Calma 2 Sudeste 0 -- -- 92
2019-03-01 09:00:00 0.6 0 Calma 5 Norte 0 -- -- 96
2019-03-01 08:00:00 -0.1 3 Norte 6 Norte 0 -- -- 94
2019-03-01 07:00:00 0.6 2 Noroeste 4 Oeste 0 -- -- 94
2019-03-01 06:00:00 0.5 0 Calma 4 Norte 0 -- -- 93
2019-03-01 05:00:00 0.9 2 Norte 4 Norte 0 -- -- 92
2019-03-01 04:00:00 1.8 2 Norte 4 Norte 0 -- -- 91
2019-03-01 03:00:00 2.8 2 Noroeste 5 Noroeste 0 -- -- 89
2019-03-01 02:00:00 2.8 0 Calma 3 Este 0 -- -- 88
2019-03-01 01:00:00 4.3 2 Norte 7 Norte 0 -- -- 82
2019-03-01 00:00:00 4.9 3 Noroeste 5 Norte 0 -- -- 81
2019-02-28 23:00:00 5.9 3 Noroeste 6 Norte 0 -- -- 78
2019-02-28 22:00:00 7.5 4 Norte 8 Noroeste 0 -- -- 74
2019-02-28 21:00:00 9.7 3 Noroeste 7 Norte 0 -- -- 69
2019-02-28 20:00:00 12.9 2 Noroeste 6 Noroeste 0 -- -- 61
2019-02-28 19:00:00 16.5 0 Calma 12 Este 0 -- -- 50
2019-02-28 18:00:00 18.2 6 Sudeste 14 Sudeste 0 -- -- 42
2019-02-28 17:00:00 19 6 Sudeste 13 Sudeste 0 -- -- 41
2019-02-28 16:00:00 19.2 6 Este 14 Sudeste 0 -- -- 40
2019-02-28 15:00:00 18.9 8 Este 14 Este 0 -- -- 41
2019-02-28 14:00:00 19.1 5 Este 15 Este 0 -- -- 42
2019-02-28 13:00:00 17.8 7 Sudeste 13 Este 0 -- -- 45
2019-02-28 12:00:00 16 4 Sudeste 10 Sudeste 0 -- -- 50
2019-02-28 11:00:00 10.8 0 Calma 4 Este 0 -- -- 74
2019-02-28 10:00:00 5.9 0 Calma 2 Noroeste 0 -- -- 92
2019-02-28 09:00:00 3.9 0 Calma 3 Norte 0 -- -- 96
2019-02-28 08:00:00 2.6 0 Calma 3 Noroeste 0 -- -- 91
2019-02-28 07:00:00 3.7 0 Calma 6 Norte 0 -- -- 89
2019-02-28 06:00:00 5.1 4 Norte 9 Norte 0 -- -- 89
2019-02-28 05:00:00 6.7 4 Noroeste 15 Sudoeste 0 -- -- 84
2019-02-28 04:00:00 9.9 12 Sudoeste 30 Sudoeste 0 -- -- 75
2019-02-28 03:00:00 10.6 13 Oeste 25 Oeste 0 -- -- 73
2019-02-28 02:00:00 2.8 0 Calma 8 Norte 0 -- -- 88
2019-02-28 01:00:00 5.3 5 Norte 12 Norte 0 -- -- 81
2019-02-28 00:00:00 4.9 5 Noroeste 10 Oeste 0 -- -- 78
2019-02-27 23:00:00 4.7 2 Noroeste 6 Norte 0 -- -- 76
2019-02-27 22:00:00 6.1 5 Norte 7 Oeste 0 -- -- 71
2019-02-27 21:00:00 8 0 Calma 6 Norte 0 -- -- 65
2019-02-27 20:00:00 10.5 3 Noroeste 6 Oeste 0 -- -- 59
2019-02-27 19:00:00 14.3 0 Calma 7 Este 0 -- -- 50
2019-02-27 18:00:00 17.1 4 Nordeste 15 Este 0 -- -- 36
2019-02-27 17:00:00 18.7 3 Sur 10 Sudeste 0 -- -- 33
2019-02-27 16:00:00 19.2 3 Sudeste 18 Oeste 0 -- -- 29
2019-02-27 15:00:00 18.4 8 Sudoeste 27 Oeste 0 -- -- 28
2019-02-27 14:00:00 17.7 7 Sur 26 Este 0 -- -- 33
2019-02-27 13:00:00 17.3 9 Sudoeste 25 Sudoeste 0 -- -- 34
2019-02-27 12:00:00 16.8 5 Este 18 Este 0 -- -- 36
2019-02-27 11:00:00 14.9 6 Oeste 23 Sur 0 -- -- 38
2019-02-27 10:00:00 6.7 0 Calma 5 Sudoeste 0 -- -- 76
2019-02-27 09:00:00 2.3 3 Noroeste 7 Sur 0 -- -- 90
2019-02-27 08:00:00 1.1 0 Calma 4 Norte 0 -- -- 89
2019-02-27 07:00:00 1.7 2 Noroeste 6 Sudoeste 0 -- -- 87
2019-02-27 06:00:00 2.6 2 Noroeste 6 Noroeste 0 -- -- 84
2019-02-27 05:00:00 3 2 Noroeste 8 Norte 0 -- -- 83
2019-02-27 04:00:00 3.5 2 Nordeste 6 Norte 0 -- -- 81
2019-02-27 03:00:00 4.1 2 Nordeste 9 Norte 0 -- -- 79
2019-02-27 02:00:00 4.4 0 Calma 9 Noroeste 0 -- -- 78
2019-02-27 01:00:00 5.4 0 Calma 6 Este 0 -- -- 75
2019-02-27 00:00:00 6.7 2 Este 13 Norte 0 -- -- 69
2019-02-26 23:00:00 6.3 3 Este 9 Norte 0 -- -- 71
2019-02-26 22:00:00 7.6 4 Sudoeste 10 Norte 0 -- -- 66
2019-02-26 21:00:00 9.6 3 Noroeste 8 Norte 0 -- -- 57
2019-02-26 20:00:00 12.8 4 Noroeste 13 Norte 0 -- -- 47
2019-02-26 19:00:00 17.7 3 Sur 18 Oeste 0 -- -- 36
2019-02-26 18:00:00 20.9 11 Oeste 25 Oeste 0 -- -- 28
2019-02-26 17:00:00 21.6 14 Sudoeste 24 Sudoeste 0 -- -- 27
2019-02-26 16:00:00 21.4 6 Este 28 Sudeste 0 -- -- 30
2019-02-26 15:00:00 21 10 Sur 34 Este 0 -- -- 25
2019-02-26 14:00:00 20.7 11 Sudeste 26 Este 0 -- -- 33
2019-02-26 13:00:00 18.6 9 Este 15 Este 0 -- -- 46
2019-02-26 12:00:00 15.2 5 Sudeste 8 Sudeste 0 -- -- 58
2019-02-26 11:00:00 9.7 0 Calma 5 Sudeste 0 -- -- 77
2019-02-26 10:00:00 4.8 0 Calma 3 Este 0 -- -- 98
2019-02-26 09:00:00 0.9 0 Calma 2 Norte 0 -- -- 97
2019-02-26 08:00:00 0.5 0 Calma 4 Norte 0 -- -- 96
2019-02-26 07:00:00 0.6 0 Calma 4 Noroeste 0 -- -- 95
2019-02-26 06:00:00 1 0 Calma 6 Norte 0 -- -- 95
2019-02-26 05:00:00 1.3 0 Calma 3 Nordeste 0 -- -- 94
2019-02-26 04:00:00 1.8 0 Calma 3 Noroeste 0 -- -- 93
2019-02-26 03:00:00 2.4 0 Calma 5 Sudeste 0 -- -- 92
2019-02-26 02:00:00 3.4 2 Norte 5 Noroeste 0 -- -- 90
2019-02-26 01:00:00 4.7 3 Noroeste 6 Oeste 0 -- -- 90
2019-02-26 00:00:00 4.9 0 Calma 5 Norte 0 -- -- 87
2019-02-25 23:00:00 6.3 3 Norte 5 Norte 0 -- -- 85
2019-02-25 22:00:00 7.6 3 Noroeste 7 Noroeste 0 -- -- 79
2019-02-25 21:00:00 9.6 3 Noroeste 5 Noroeste 0 -- -- 74
2019-02-25 20:00:00 12.3 3 Noroeste 6 Sudoeste 0 -- -- 66
2019-02-25 19:00:00 16.9 4 Noroeste 8 Oeste 0 -- -- 52
2019-02-25 18:00:00 21.4 5 Oeste 13 Este 0 -- -- 37
2019-02-25 17:00:00 21.2 10 Este 21 Este 0 -- -- 38
2019-02-25 16:00:00 21.2 13 Este 23 Este 0 -- -- 38
2019-02-25 15:00:00 20.9 14 Este 24 Este 0 -- -- 40
2019-02-25 14:00:00 20 13 Este 19 Este 0 -- -- 38
2019-02-25 13:00:00 18.2 13 Este 17 Este 0 -- -- 46
2019-02-25 12:00:00 15.4 3 Este 7 Este 0 -- -- 47
2019-02-25 11:00:00 9.3 0 Calma 4 Oeste 0 -- -- 72
2019-02-25 10:00:00 3.7 0 Calma 3 Este 0 -- -- 96
2019-02-25 09:00:00 0.7 0 Calma 3 Norte 0 -- -- 96
2019-02-25 08:00:00 0.2 0 Calma 5 Norte 0 -- -- 94
2019-02-25 07:00:00 0.9 3 Noroeste 6 Norte 0 -- -- 95
2019-02-25 06:00:00 0.4 0 Calma 5 Norte 0 -- -- 93
2019-02-25 05:00:00 0.9 2 Noroeste 4 Este 0 -- -- 94
2019-02-25 04:00:00 2 2 Norte 5 Norte 0 -- -- 93
2019-02-25 03:00:00 2.2 0 Calma 4 Noroeste 0 -- -- 91
2019-02-25 02:00:00 2.9 0 Calma 3 Sudeste 0 -- -- 89
2019-02-25 01:00:00 3.9 0 Calma 5 Noroeste 0 -- -- 88
2019-02-25 00:00:00 5.2 2 Noroeste 6 Noroeste 0 -- -- 85
2019-02-24 23:00:00 6.3 4 Noroeste 7 Noroeste 0 -- -- 81
2019-02-24 22:00:00 7.3 4 Norte 6 Noroeste 0 -- -- 76
2019-02-24 21:00:00 9.1 3 Noroeste 7 Oeste 0 -- -- 70
2019-02-24 20:00:00 11.7 3 Noroeste 6 Norte 0 -- -- 62
2019-02-24 19:00:00 15.6 4 Norte 9 Oeste 0 -- -- 50
2019-02-24 18:00:00 21.2 6 Oeste 17 Sudoeste 0 -- -- 38
2019-02-24 17:00:00 22.6 9 Oeste 19 Sudoeste 0 -- -- 27
2019-02-24 16:00:00 22.1 4 Noroeste 15 Este 0 -- -- 29
2019-02-24 15:00:00 21.2 6 Este 15 Este 0 -- -- 31
2019-02-24 14:00:00 19.6 8 Este 15 Este 0 -- -- 35
2019-02-24 13:00:00 17.5 8 Este 14 Este 0 -- -- 38
2019-02-24 12:00:00 15 9 Este 18 Este 0 -- -- 47
2019-02-24 11:00:00 10 0 Calma 4 Sudeste 0 -- -- 64
2019-02-24 10:00:00 4.8 3 Noroeste 8 Noroeste 0 -- -- 87
2019-02-24 09:00:00 0.6 2 Noroeste 5 Norte 0 -- -- 95
2019-02-24 08:00:00 -0.2 0 Calma 4 Norte 0 -- -- 93
2019-02-24 07:00:00 0.5 0 Calma 7 Noroeste 0 -- -- 91
2019-02-24 06:00:00 1.5 2 Noroeste 6 Norte 0 -- -- 91
2019-02-24 05:00:00 1.7 2 Noroeste 6 Norte 0 -- -- 90
2019-02-24 04:00:00 2.5 3 Norte 6 Noroeste 0 -- -- 89
2019-02-24 03:00:00 3.8 3 Norte 6 Norte 0 -- -- 85
2019-02-24 02:00:00 4.6 3 Noroeste 8 Noroeste 0 -- -- 82
2019-02-24 01:00:00 5.8 3 Norte 8 Norte 0 -- -- 79
2019-02-24 00:00:00 6.9 3 Noroeste 6 Norte 0 -- -- 76
2019-02-23 23:00:00 9.2 3 Norte 9 Norte 0 -- -- 67
2019-02-23 22:00:00 12.6 4 Oeste 18 Oeste 0 -- -- 56
2019-02-23 21:00:00 13.9 4 Oeste 17 Noroeste 0 -- -- 51
2019-02-23 20:00:00 15.1 5 Oeste 21 Noroeste 0 -- -- 43
2019-02-23 19:00:00 15.9 7 Noroeste 18 Noroeste 0 -- -- 45
2019-02-23 18:00:00 19.3 2 Oeste 17 Sudoeste 0 -- -- 37
2019-02-23 17:00:00 20.2 13 Sudoeste 21 Sudoeste 0 -- -- 29
2019-02-23 16:00:00 20.5 3 Sudeste 12 Este 0 -- -- 34
2019-02-23 15:00:00 20.7 6 Sudeste 12 Este 0 -- -- 32
2019-02-23 14:00:00 18.9 5 Este 11 Sudeste 0 -- -- 35
2019-02-23 13:00:00 16.9 6 Este 12 Este 0 -- -- 44
2019-02-23 12:00:00 11.4 3 Sudeste 5 Este 0 -- -- 65
2019-02-23 11:00:00 6.9 0 Calma 3 Este 0 -- -- 81
2019-02-23 10:00:00 3.1 0 Calma 4 Oeste 0 -- -- 95
2019-02-23 09:00:00 0.6 0 Calma 3 Sudeste 0 -- -- 96
2019-02-23 08:00:00 0.2 0 Calma 3 Noroeste 0 -- -- 95
2019-02-23 07:00:00 0 0 Calma 4 Norte 0 -- -- 94
2019-02-23 06:00:00 0.1 0 Calma 3 Este 0 -- -- 93
2019-02-23 05:00:00 0.2 0 Calma 3 Norte 0 -- -- 93
2019-02-23 04:00:00 0.5 0 Calma 3 Este 0 -- -- 91
2019-02-23 03:00:00 1.1 0 Calma 4 Norte 0 -- -- 90
2019-02-23 02:00:00 1.5 2 Noroeste 3 Norte 0 -- -- 88
2019-02-23 01:00:00 1.7 0 Calma 3 Norte 0 -- -- 87
2019-02-23 00:00:00 2.6 0 Calma 6 Norte 0 -- -- 83
2019-02-22 23:00:00 4 3 Norte 6 Noroeste 0 -- -- 77
2019-02-22 22:00:00 5.2 3 Noroeste 5 Norte 0 -- -- 73
2019-02-22 21:00:00 6.7 2 Noroeste 5 Noroeste 0 -- -- 67
2019-02-22 20:00:00 9.7 4 Noroeste 9 Noroeste 0 -- -- 57
2019-02-22 19:00:00 13.6 3 Noroeste 9 Este 0 -- -- 48
2019-02-22 18:00:00 18.5 4 Noroeste 16 Este 0 -- -- 31
2019-02-22 17:00:00 19.4 5 Oeste 31 Oeste 0 -- -- 28
2019-02-22 16:00:00 19.6 5 Sudoeste 28 Sudoeste 0 -- -- 29
2019-02-22 15:00:00 18.8 7 Este 28 Este 0 -- -- 29
2019-02-22 14:00:00 18.2 15 Sudeste 35 Este 0 -- -- 28
2019-02-22 13:00:00 17.4 10 Este 27 Este 0 -- -- 35
2019-02-22 12:00:00 12.6 3 Sudeste 8 Sudeste 0 -- -- 60
2019-02-22 11:00:00 7.8 3 Sudeste 8 Este 0 -- -- 77
2019-02-22 10:00:00 2.6 0 Calma 3 Sudeste 0 -- -- 98
2019-02-22 09:00:00 -0.7 0 Calma 4 Norte 0 -- -- 97
2019-02-22 08:00:00 -1 2 Norte 4 Norte 0 -- -- 95
2019-02-22 07:00:00 -0.9 0 Calma 5 Norte 0 -- -- 95
2019-02-22 06:00:00 -0.4 0 Calma 3 Noroeste 0 -- -- 94
2019-02-22 05:00:00 0.2 0 Calma 4 Norte 0 -- -- 94
2019-02-22 04:00:00 0.8 0 Calma 5 Norte 0 -- -- 93
2019-02-22 03:00:00 1.7 2 Norte 4 Norte 0 -- -- 92
2019-02-22 02:00:00 2.3 0 Calma 5 Norte 0 -- -- 90
2019-02-22 01:00:00 3.2 2 Noroeste 6 Sudeste 0 -- -- 90
2019-02-22 00:00:00 4 3 Nordeste 6 Norte 0 -- -- 85
2019-02-21 23:00:00 5.4 2 Nordeste 6 Noroeste 0 -- -- 80
2019-02-21 22:00:00 7.1 3 Noroeste 6 Noroeste 0 -- -- 76
2019-02-21 21:00:00 8.6 2 Noroeste 4 Norte 0 -- -- 71
2019-02-21 20:00:00 11.1 2 Noroeste 5 Norte 0 -- -- 63
2019-02-21 19:00:00 13.4 2 Noroeste 8 Sudoeste 0 -- -- 56
2019-02-21 18:00:00 17.1 4 Sur 26 Este 0 -- -- 41
2019-02-21 17:00:00 17.7 14 Sudeste 32 Este 0 -- -- 39
2019-02-21 16:00:00 18.1 12 Este 30 Este 0 -- -- 36
2019-02-21 15:00:00 17.9 12 Sudeste 38 Este 0 -- -- 35
2019-02-21 14:00:00 17.2 14 Este 34 Este 0 -- -- 40
2019-02-21 13:00:00 15.9 8 Este 19 Este 0 -- -- 50
2019-02-21 12:00:00 11.9 4 Sudeste 8 Sudeste 0 -- -- 72
2019-02-21 11:00:00 7.4 0 Calma 5 Sudeste 0 -- -- 93
2019-02-21 10:00:00 2.2 0 Calma 2 Sur 0 -- -- 99
2019-02-21 09:00:00 -0.6 0 Calma 3 Norte 0 -- -- 98
2019-02-21 08:00:00 -1.1 0 Calma 3 Norte 0 -- -- 97
2019-02-21 07:00:00 -0.8 0 Calma 3 Norte 0 -- -- 97
2019-02-21 06:00:00 -0.5 0 Calma 3 Norte 0 -- -- 96
2019-02-21 05:00:00 -0.2 0 Calma 3 Norte 0 -- -- 95
2019-02-21 04:00:00 0.4 0 Calma 4 Noroeste 0 -- -- 95
2019-02-21 03:00:00 1 2 Norte 4 Norte 0 -- -- 94
2019-02-21 02:00:00 1.9 0 Calma 5 Norte 0 -- -- 95
2019-02-21 01:00:00 2.1 0 Calma 5 Noroeste 0 -- -- 92
2019-02-21 00:00:00 3 2 Norte 5 Norte 0 -- -- 92
2019-02-20 23:00:00 4 2 Noroeste 5 Norte 0 -- -- 92
2019-02-20 22:00:00 4.8 2 Noroeste 5 Noroeste 0 -- -- 89
2019-02-20 21:00:00 6.2 3 Noroeste 5 Noroeste 0 -- -- 86
2019-02-20 20:00:00 8.4 2 Noroeste 5 Noroeste 0 -- -- 79
2019-02-20 19:00:00 11.5 2 Norte 8 Nordeste 0 -- -- 70
2019-02-20 18:00:00 14.1 3 Sudeste 14 Sudeste 0 -- -- 60
2019-02-20 17:00:00 14.6 5 Sur 21 Sudeste 0 -- -- 56
2019-02-20 16:00:00 14.8 9 Sudeste 17 Este 0 -- -- 57
2019-02-20 15:00:00 14.5 10 Sudeste 19 Este 0 -- -- 58
2019-02-20 14:00:00 14.4 6 Este 20 Sudoeste 0 -- -- 61
2019-02-20 13:00:00 13.7 3 Sudeste 7 Sur 0 -- -- 65
2019-02-20 12:00:00 10 0 Calma 5 Sudeste 0 -- -- 83
2019-02-20 11:00:00 7.6 4 Este 8 Este 0 -- -- 90
2019-02-20 10:00:00 4.8 0 Calma 4 Oeste 0 -- -- 98
2019-02-20 09:00:00 1.7 0 Calma 3 Norte 0 -- -- 97
2019-02-20 08:00:00 1.7 0 Calma 5 Este 0 -- -- 94
2019-02-20 07:00:00 3.2 0 Calma 3 Sudeste 0 -- -- 95
2019-02-20 06:00:00 3.6 0 Calma 3 Sudeste 0 -- -- 96
2019-02-20 05:00:00 3.9 0 Calma 4 Nordeste 0 -- -- 94
2019-02-20 04:00:00 4.5 0 Calma 5 Este 0 -- -- 93
2019-02-20 03:00:00 5 0 Calma 5 Norte 0 -- -- 94
2019-02-20 02:00:00 4.7 0 Calma 4 Norte 0 -- -- 94
2019-02-20 01:00:00 4.8 0 Calma 4 Norte 0 -- -- 92
2019-02-20 00:00:00 6 0 Calma 5 Oeste 0 -- -- 90